sensor_id;sensor_type;location;lat;lon;timestamp;P1;durP1;ratioP1;P2;durP2;ratioP2
73100;SDS011;61288;53.446;-2.266;2023-04-06T00:00:00;18.17;;;7.60;;
73100;SDS011;61288;53.446;-2.266;2023-04-06T00:02:26;18.63;;;8.27;;
73100;SDS011;61288;53.446;-2.266;2023-04-06T00:04:51;16.73;;;7.88;;
73100;SDS011;61288;53.446;-2.266;2023-04-06T00:07:17;18.17;;;8.02;;
73100;SDS011;61288;53.446;-2.266;2023-04-06T00:09:42;17.50;;;7.25;;
73100;SDS011;61288;53.446;-2.266;2023-04-06T00:12:09;20.15;;;8.30;;
73100;SDS011;61288;53.446;-2.266;2023-04-06T00:14:35;17.50;;;7.65;;
73100;SDS011;61288;53.446;-2.266;2023-04-06T00:17:01;16.42;;;7.70;;
73100;SDS011;61288;53.446;-2.266;2023-04-06T00:19:27;16.95;;;7.22;;
73100;SDS011;61288;53.446;-2.266;2023-04-06T00:21:52;16.77;;;7.75;;
73100;SDS011;61288;53.446;-2.266;2023-04-06T00:24:17;17.83;;;8.02;;
73100;SDS011;61288;53.446;-2.266;2023-04-06T00:26:43;16.88;;;7.70;;
73100;SDS011;61288;53.446;-2.266;2023-04-06T00:29:08;16.23;;;7.47;;
73100;SDS011;61288;53.446;-2.266;2023-04-06T00:31:34;19.58;;;8.25;;
73100;SDS011;61288;53.446;-2.266;2023-04-06T00:33:59;17.27;;;7.55;;
73100;SDS011;61288;53.446;-2.266;2023-04-06T00:36:25;15.90;;;7.38;;
73100;SDS011;61288;53.446;-2.266;2023-04-06T00:38:51;17.88;;;7.57;;
73100;SDS011;61288;53.446;-2.266;2023-04-06T00:41:17;17.85;;;7.68;;
73100;SDS011;61288;53.446;-2.266;2023-04-06T00:43:43;19.73;;;8.10;;
73100;SDS011;61288;53.446;-2.266;2023-04-06T00:46:08;18.75;;;8.20;;
73100;SDS011;61288;53.446;-2.266;2023-04-06T00:48:34;18.63;;;8.48;;
73100;SDS011;61288;53.446;-2.266;2023-04-06T00:51:00;19.17;;;7.72;;
73100;SDS011;61288;53.446;-2.266;2023-04-06T00:53:26;20.48;;;8.23;;
73100;SDS011;61288;53.446;-2.266;2023-04-06T00:55:52;21.48;;;8.52;;
73100;SDS011;61288;53.446;-2.266;2023-04-06T00:58:20;16.98;;;7.50;;
73100;SDS011;61288;53.446;-2.266;2023-04-06T01:00:46;17.70;;;7.90;;
73100;SDS011;61288;53.446;-2.266;2023-04-06T01:03:12;18.88;;;7.78;;
73100;SDS011;61288;53.446;-2.266;2023-04-06T01:05:41;16.55;;;6.57;;
73100;SDS011;61288;53.446;-2.266;2023-04-06T01:08:07;18.15;;;8.00;;
73100;SDS011;61288;53.446;-2.266;2023-04-06T01:10:33;16.83;;;8.00;;
73100;SDS011;61288;53.446;-2.266;2023-04-06T01:13:01;17.67;;;7.75;;
73100;SDS011;61288;53.446;-2.266;2023-04-06T01:15:27;20.30;;;8.50;;
73100;SDS011;61288;53.446;-2.266;2023-04-06T01:17:55;18.38;;;7.72;;
73100;SDS011;61288;53.446;-2.266;2023-04-06T01:20:21;18.17;;;7.90;;
73100;SDS011;61288;53.446;-2.266;2023-04-06T01:22:49;17.80;;;7.97;;
73100;SDS011;61288;53.446;-2.266;2023-04-06T01:25:19;17.58;;;7.18;;
73100;SDS011;61288;53.446;-2.266;2023-04-06T01:27:48;17.48;;;8.18;;
73100;SDS011;61288;53.446;-2.266;2023-04-06T01:30:13;18.35;;;8.13;;
73100;SDS011;61288;53.446;-2.266;2023-04-06T01:32:39;16.52;;;7.18;;
73100;SDS011;61288;53.446;-2.266;2023-04-06T01:35:08;18.55;;;8.40;;
73100;SDS011;61288;53.446;-2.266;2023-04-06T01:37:34;18.63;;;8.70;;
73100;SDS011;61288;53.446;-2.266;2023-04-06T01:40:00;21.17;;;9.35;;
73100;SDS011;61288;53.446;-2.266;2023-04-06T01:42:25;16.95;;;7.72;;
73100;SDS011;61288;53.446;-2.266;2023-04-06T01:44:51;18.95;;;8.27;;
73100;SDS011;61288;53.446;-2.266;2023-04-06T01:47:19;20.67;;;9.07;;
73100;SDS011;61288;53.446;-2.266;2023-04-06T01:49:44;23.27;;;8.98;;
73100;SDS011;61288;53.446;-2.266;2023-04-06T01:52:10;21.52;;;9.68;;
73100;SDS011;61288;53.446;-2.266;2023-04-06T01:54:36;19.75;;;7.97;;
73100;SDS011;61288;53.446;-2.266;2023-04-06T01:57:02;18.20;;;8.48;;
73100;SDS011;61288;53.446;-2.266;2023-04-06T01:59:27;20.90;;;9.23;;
73100;SDS011;61288;53.446;-2.266;2023-04-06T02:01:53;19.83;;;8.15;;
73100;SDS011;61288;53.446;-2.266;2023-04-06T02:04:22;20.83;;;9.23;;
73100;SDS011;61288;53.446;-2.266;2023-04-06T02:06:47;20.38;;;8.82;;
73100;SDS011;61288;53.446;-2.266;2023-04-06T02:09:14;20.08;;;8.80;;
73100;SDS011;61288;53.446;-2.266;2023-04-06T02:11:40;18.80;;;8.30;;
73100;SDS011;61288;53.446;-2.266;2023-04-06T02:14:05;20.42;;;9.40;;
73100;SDS011;61288;53.446;-2.266;2023-04-06T02:16:31;18.80;;;9.02;;
73100;SDS011;61288;53.446;-2.266;2023-04-06T02:18:56;20.80;;;8.70;;
73100;SDS011;61288;53.446;-2.266;2023-04-06T02:21:22;20.63;;;9.85;;
73100;SDS011;61288;53.446;-2.266;2023-04-06T02:23:48;22.58;;;10.00;;
73100;SDS011;61288;53.446;-2.266;2023-04-06T02:26:14;22.27;;;9.73;;
73100;SDS011;61288;53.446;-2.266;2023-04-06T02:28:40;21.38;;;9.65;;
73100;SDS011;61288;53.446;-2.266;2023-04-06T02:31:06;21.52;;;9.75;;
73100;SDS011;61288;53.446;-2.266;2023-04-06T02:33:32;21.98;;;9.55;;
73100;SDS011;61288;53.446;-2.266;2023-04-06T02:35:58;23.98;;;10.35;;
73100;SDS011;61288;53.446;-2.266;2023-04-06T02:38:23;22.52;;;10.52;;
73100;SDS011;61288;53.446;-2.266;2023-04-06T02:40:49;22.13;;;9.85;;
73100;SDS011;61288;53.446;-2.266;2023-04-06T02:43:14;20.83;;;9.38;;
73100;SDS011;61288;53.446;-2.266;2023-04-06T02:45:42;22.48;;;9.85;;
73100;SDS011;61288;53.446;-2.266;2023-04-06T02:48:07;25.50;;;11.07;;
73100;SDS011;61288;53.446;-2.266;2023-04-06T02:50:35;21.50;;;10.25;;
73100;SDS011;61288;53.446;-2.266;2023-04-06T02:53:01;21.55;;;9.80;;
73100;SDS011;61288;53.446;-2.266;2023-04-06T02:55:26;20.17;;;9.30;;
73100;SDS011;61288;53.446;-2.266;2023-04-06T02:57:52;20.75;;;8.63;;
73100;SDS011;61288;53.446;-2.266;2023-04-06T03:00:17;21.48;;;9.10;;
73100;SDS011;61288;53.446;-2.266;2023-04-06T03:02:43;19.92;;;9.13;;
73100;SDS011;61288;53.446;-2.266;2023-04-06T03:05:09;19.80;;;9.50;;
73100;SDS011;61288;53.446;-2.266;2023-04-06T03:07:34;21.83;;;8.75;;
73100;SDS011;61288;53.446;-2.266;2023-04-06T03:10:00;21.15;;;8.77;;
73100;SDS011;61288;53.446;-2.266;2023-04-06T03:12:25;19.75;;;8.95;;
73100;SDS011;61288;53.446;-2.266;2023-04-06T03:14:51;19.27;;;8.95;;
73100;SDS011;61288;53.446;-2.266;2023-04-06T03:17:19;18.88;;;9.02;;
73100;SDS011;61288;53.446;-2.266;2023-04-06T03:19:45;18.80;;;8.95;;
73100;SDS011;61288;53.446;-2.266;2023-04-06T03:22:10;19.92;;;8.88;;
73100;SDS011;61288;53.446;-2.266;2023-04-06T03:24:36;20.50;;;9.27;;
73100;SDS011;61288;53.446;-2.266;2023-04-06T03:27:01;20.23;;;9.02;;
73100;SDS011;61288;53.446;-2.266;2023-04-06T03:29:27;20.48;;;9.07;;
73100;SDS011;61288;53.446;-2.266;2023-04-06T03:31:52;21.15;;;9.25;;
73100;SDS011;61288;53.446;-2.266;2023-04-06T03:34:18;20.08;;;8.27;;
73100;SDS011;61288;53.446;-2.266;2023-04-06T03:36:43;19.40;;;8.73;;
73100;SDS011;61288;53.446;-2.266;2023-04-06T03:39:09;19.02;;;8.45;;
73100;SDS011;61288;53.446;-2.266;2023-04-06T03:41:34;21.10;;;8.45;;
73100;SDS011;61288;53.446;-2.266;2023-04-06T03:44:00;19.98;;;8.48;;
73100;SDS011;61288;53.446;-2.266;2023-04-06T03:46:25;17.35;;;8.07;;
73100;SDS011;61288;53.446;-2.266;2023-04-06T03:48:51;18.20;;;7.40;;
73100;SDS011;61288;53.446;-2.266;2023-04-06T03:51:16;17.60;;;8.00;;
73100;SDS011;61288;53.446;-2.266;2023-04-06T03:53:42;19.67;;;8.82;;
73100;SDS011;61288;53.446;-2.266;2023-04-06T03:56:07;23.10;;;8.38;;
73100;SDS011;61288;53.446;-2.266;2023-04-06T03:58:33;20.00;;;8.02;;
73100;SDS011;61288;53.446;-2.266;2023-04-06T04:00:58;20.52;;;8.45;;
73100;SDS011;61288;53.446;-2.266;2023-04-06T04:03:24;19.80;;;7.68;;
73100;SDS011;61288;53.446;-2.266;2023-04-06T04:05:52;20.20;;;8.15;;
73100;SDS011;61288;53.446;-2.266;2023-04-06T04:08:17;25.20;;;8.65;;
73100;SDS011;61288;53.446;-2.266;2023-04-06T04:10:42;23.58;;;8.25;;
73100;SDS011;61288;53.446;-2.266;2023-04-06T04:13:08;23.13;;;8.25;;
73100;SDS011;61288;53.446;-2.266;2023-04-06T04:15:34;24.75;;;8.13;;
73100;SDS011;61288;53.446;-2.266;2023-04-06T04:17:59;24.15;;;8.00;;
73100;SDS011;61288;53.446;-2.266;2023-04-06T04:20:26;24.58;;;8.52;;
73100;SDS011;61288;53.446;-2.266;2023-04-06T04:22:53;25.70;;;8.95;;
73100;SDS011;61288;53.446;-2.266;2023-04-06T04:25:18;25.92;;;8.02;;
73100;SDS011;61288;53.446;-2.266;2023-04-06T04:27:43;23.77;;;8.45;;
73100;SDS011;61288;53.446;-2.266;2023-04-06T04:32:52;21.50;;;7.80;;
73100;SDS011;61288;53.446;-2.266;2023-04-06T04:35:19;20.30;;;7.97;;
73100;SDS011;61288;53.446;-2.266;2023-04-06T04:37:45;25.05;;;9.13;;
73100;SDS011;61288;53.446;-2.266;2023-04-06T04:40:11;26.48;;;10.07;;
73100;SDS011;61288;53.446;-2.266;2023-04-06T04:42:38;24.05;;;9.63;;
73100;SDS011;61288;53.446;-2.266;2023-04-06T04:45:07;23.85;;;8.50;;
73100;SDS011;61288;53.446;-2.266;2023-04-06T04:47:33;28.42;;;9.40;;
73100;SDS011;61288;53.446;-2.266;2023-04-06T04:49:59;26.92;;;9.43;;
73100;SDS011;61288;53.446;-2.266;2023-04-06T04:52:24;23.88;;;8.20;;
73100;SDS011;61288;53.446;-2.266;2023-04-06T04:54:50;28.63;;;9.00;;
73100;SDS011;61288;53.446;-2.266;2023-04-06T04:57:15;28.17;;;9.43;;
73100;SDS011;61288;53.446;-2.266;2023-04-06T04:59:42;24.52;;;9.32;;
73100;SDS011;61288;53.446;-2.266;2023-04-06T05:02:08;23.95;;;9.02;;
73100;SDS011;61288;53.446;-2.266;2023-04-06T05:04:33;25.08;;;9.38;;
73100;SDS011;61288;53.446;-2.266;2023-04-06T05:07:02;28.50;;;8.85;;
73100;SDS011;61288;53.446;-2.266;2023-04-06T05:09:31;23.45;;;8.07;;
73100;SDS011;61288;53.446;-2.266;2023-04-06T05:11:58;24.95;;;8.65;;
73100;SDS011;61288;53.446;-2.266;2023-04-06T05:14:26;24.35;;;9.35;;
73100;SDS011;61288;53.446;-2.266;2023-04-06T05:16:53;22.92;;;8.35;;
73100;SDS011;61288;53.446;-2.266;2023-04-06T05:19:19;26.52;;;9.23;;
73100;SDS011;61288;53.446;-2.266;2023-04-06T05:21:44;23.42;;;8.00;;
73100;SDS011;61288;53.446;-2.266;2023-04-06T05:24:10;21.33;;;8.13;;
73100;SDS011;61288;53.446;-2.266;2023-04-06T05:26:36;22.27;;;8.85;;
73100;SDS011;61288;53.446;-2.266;2023-04-06T05:29:01;23.60;;;7.75;;
73100;SDS011;61288;53.446;-2.266;2023-04-06T05:31:27;20.60;;;7.93;;
73100;SDS011;61288;53.446;-2.266;2023-04-06T05:33:53;19.73;;;7.13;;
73100;SDS011;61288;53.446;-2.266;2023-04-06T05:36:20;22.15;;;7.47;;
73100;SDS011;61288;53.446;-2.266;2023-04-06T05:38:45;19.10;;;6.25;;
73100;SDS011;61288;53.446;-2.266;2023-04-06T05:41:11;20.63;;;7.25;;
73100;SDS011;61288;53.446;-2.266;2023-04-06T05:43:36;22.88;;;6.72;;
73100;SDS011;61288;53.446;-2.266;2023-04-06T05:46:02;17.75;;;6.50;;
73100;SDS011;61288;53.446;-2.266;2023-04-06T05:48:28;15.23;;;5.88;;
73100;SDS011;61288;53.446;-2.266;2023-04-06T05:50:54;18.45;;;6.63;;
73100;SDS011;61288;53.446;-2.266;2023-04-06T05:53:20;20.92;;;7.05;;
73100;SDS011;61288;53.446;-2.266;2023-04-06T05:55:46;17.50;;;6.57;;
73100;SDS011;61288;53.446;-2.266;2023-04-06T05:58:12;18.98;;;6.32;;
73100;SDS011;61288;53.446;-2.266;2023-04-06T06:00:38;16.98;;;6.10;;
73100;SDS011;61288;53.446;-2.266;2023-04-06T06:03:03;17.27;;;6.07;;
73100;SDS011;61288;53.446;-2.266;2023-04-06T06:05:30;13.48;;;5.15;;
73100;SDS011;61288;53.446;-2.266;2023-04-06T06:07:56;10.52;;;3.53;;
73100;SDS011;61288;53.446;-2.266;2023-04-06T06:10:21;11.05;;;3.58;;
73100;SDS011;61288;53.446;-2.266;2023-04-06T06:12:47;11.85;;;3.50;;
73100;SDS011;61288;53.446;-2.266;2023-04-06T06:15:12;11.98;;;2.80;;
73100;SDS011;61288;53.446;-2.266;2023-04-06T06:17:38;9.75;;;2.30;;
73100;SDS011;61288;53.446;-2.266;2023-04-06T06:20:05;7.78;;;2.17;;
73100;SDS011;61288;53.446;-2.266;2023-04-06T06:22:33;5.60;;;2.00;;
73100;SDS011;61288;53.446;-2.266;2023-04-06T06:24:59;7.97;;;2.97;;
73100;SDS011;61288;53.446;-2.266;2023-04-06T06:27:26;9.50;;;2.25;;
73100;SDS011;61288;53.446;-2.266;2023-04-06T06:29:51;12.13;;;3.13;;
73100;SDS011;61288;53.446;-2.266;2023-04-06T06:32:18;7.13;;;2.20;;
73100;SDS011;61288;53.446;-2.266;2023-04-06T06:34:45;9.95;;;2.60;;
73100;SDS011;61288;53.446;-2.266;2023-04-06T06:37:10;9.70;;;2.38;;
73100;SDS011;61288;53.446;-2.266;2023-04-06T06:39:36;9.65;;;3.20;;
73100;SDS011;61288;53.446;-2.266;2023-04-06T06:42:01;9.68;;;2.33;;
73100;SDS011;61288;53.446;-2.266;2023-04-06T06:44:27;13.88;;;2.72;;
73100;SDS011;61288;53.446;-2.266;2023-04-06T06:46:53;9.27;;;2.40;;
73100;SDS011;61288;53.446;-2.266;2023-04-06T06:49:19;10.55;;;3.10;;
73100;SDS011;61288;53.446;-2.266;2023-04-06T06:51:45;14.32;;;3.42;;
73100;SDS011;61288;53.446;-2.266;2023-04-06T06:54:11;9.55;;;2.70;;
73100;SDS011;61288;53.446;-2.266;2023-04-06T06:56:37;10.15;;;2.80;;
73100;SDS011;61288;53.446;-2.266;2023-04-06T06:59:04;10.05;;;2.50;;
73100;SDS011;61288;53.446;-2.266;2023-04-06T07:01:32;14.45;;;2.83;;
73100;SDS011;61288;53.446;-2.266;2023-04-06T07:03:58;12.52;;;2.70;;
73100;SDS011;61288;53.446;-2.266;2023-04-06T07:06:24;10.30;;;3.35;;
73100;SDS011;61288;53.446;-2.266;2023-04-06T07:08:49;8.80;;;2.60;;
73100;SDS011;61288;53.446;-2.266;2023-04-06T07:11:14;10.32;;;3.30;;
73100;SDS011;61288;53.446;-2.266;2023-04-06T07:13:40;7.88;;;2.58;;
73100;SDS011;61288;53.446;-2.266;2023-04-06T07:16:06;14.35;;;2.58;;
73100;SDS011;61288;53.446;-2.266;2023-04-06T07:18:31;11.82;;;2.65;;
73100;SDS011;61288;53.446;-2.266;2023-04-06T07:20:57;10.10;;;2.30;;
73100;SDS011;61288;53.446;-2.266;2023-04-06T07:23:23;12.18;;;2.63;;
73100;SDS011;61288;53.446;-2.266;2023-04-06T07:25:48;11.13;;;2.35;;
73100;SDS011;61288;53.446;-2.266;2023-04-06T07:28:16;10.45;;;2.28;;
73100;SDS011;61288;53.446;-2.266;2023-04-06T07:30:41;12.23;;;2.67;;
73100;SDS011;61288;53.446;-2.266;2023-04-06T07:33:07;13.85;;;3.13;;
73100;SDS011;61288;53.446;-2.266;2023-04-06T07:35:33;9.25;;;2.40;;
73100;SDS011;61288;53.446;-2.266;2023-04-06T07:37:59;18.25;;;3.00;;
73100;SDS011;61288;53.446;-2.266;2023-04-06T07:40:25;21.92;;;3.47;;
73100;SDS011;61288;53.446;-2.266;2023-04-06T07:42:51;11.82;;;2.55;;
73100;SDS011;61288;53.446;-2.266;2023-04-06T07:45:20;14.02;;;2.28;;
73100;SDS011;61288;53.446;-2.266;2023-04-06T07:47:46;12.38;;;1.80;;
73100;SDS011;61288;53.446;-2.266;2023-04-06T07:50:12;13.38;;;2.78;;
73100;SDS011;61288;53.446;-2.266;2023-04-06T07:52:38;15.98;;;2.78;;
73100;SDS011;61288;53.446;-2.266;2023-04-06T07:55:05;9.35;;;2.15;;
73100;SDS011;61288;53.446;-2.266;2023-04-06T07:57:30;12.13;;;2.03;;
73100;SDS011;61288;53.446;-2.266;2023-04-06T07:59:56;13.82;;;2.10;;
73100;SDS011;61288;53.446;-2.266;2023-04-06T08:02:21;15.82;;;2.03;;
73100;SDS011;61288;53.446;-2.266;2023-04-06T08:04:47;14.85;;;2.63;;
73100;SDS011;61288;53.446;-2.266;2023-04-06T08:07:13;15.20;;;2.17;;
73100;SDS011;61288;53.446;-2.266;2023-04-06T08:09:38;12.02;;;2.03;;
73100;SDS011;61288;53.446;-2.266;2023-04-06T08:12:04;14.75;;;2.42;;
73100;SDS011;61288;53.446;-2.266;2023-04-06T08:14:30;12.07;;;2.83;;
73100;SDS011;61288;53.446;-2.266;2023-04-06T08:16:55;14.45;;;2.55;;
73100;SDS011;61288;53.446;-2.266;2023-04-06T08:19:24;12.15;;;2.60;;
73100;SDS011;61288;53.446;-2.266;2023-04-06T08:21:49;21.75;;;2.65;;
73100;SDS011;61288;53.446;-2.266;2023-04-06T08:24:16;14.63;;;2.35;;
73100;SDS011;61288;53.446;-2.266;2023-04-06T08:26:42;15.32;;;2.97;;
73100;SDS011;61288;53.446;-2.266;2023-04-06T08:29:07;12.18;;;2.60;;
73100;SDS011;61288;53.446;-2.266;2023-04-06T08:31:33;12.60;;;2.60;;
73100;SDS011;61288;53.446;-2.266;2023-04-06T08:33:59;13.90;;;2.17;;
73100;SDS011;61288;53.446;-2.266;2023-04-06T08:36:25;17.00;;;2.70;;
73100;SDS011;61288;53.446;-2.266;2023-04-06T08:38:51;16.55;;;2.22;;
73100;SDS011;61288;53.446;-2.266;2023-04-06T08:41:17;10.40;;;2.15;;
73100;SDS011;61288;53.446;-2.266;2023-04-06T08:46:12;14.65;;;2.20;;
73100;SDS011;61288;53.446;-2.266;2023-04-06T08:48:38;15.25;;;2.42;;
73100;SDS011;61288;53.446;-2.266;2023-04-06T08:51:05;13.35;;;2.25;;
73100;SDS011;61288;53.446;-2.266;2023-04-06T08:53:31;5.97;;;1.80;;
73100;SDS011;61288;53.446;-2.266;2023-04-06T08:55:58;13.32;;;2.00;;
73100;SDS011;61288;53.446;-2.266;2023-04-06T08:58:25;11.43;;;1.70;;
73100;SDS011;61288;53.446;-2.266;2023-04-06T09:00:53;11.25;;;1.92;;
73100;SDS011;61288;53.446;-2.266;2023-04-06T09:03:19;13.45;;;2.03;;
73100;SDS011;61288;53.446;-2.266;2023-04-06T09:05:46;14.40;;;2.40;;
73100;SDS011;61288;53.446;-2.266;2023-04-06T09:08:12;12.52;;;2.20;;
73100;SDS011;61288;53.446;-2.266;2023-04-06T09:10:41;9.73;;;1.80;;
73100;SDS011;61288;53.446;-2.266;2023-04-06T09:13:07;14.60;;;1.90;;
73100;SDS011;61288;53.446;-2.266;2023-04-06T09:15:34;11.88;;;1.90;;
73100;SDS011;61288;53.446;-2.266;2023-04-06T09:18:00;11.48;;;1.88;;
73100;SDS011;61288;53.446;-2.266;2023-04-06T09:20:27;11.25;;;2.35;;
73100;SDS011;61288;53.446;-2.266;2023-04-06T09:22:53;11.35;;;1.88;;
73100;SDS011;61288;53.446;-2.266;2023-04-06T09:25:21;12.05;;;1.95;;
73100;SDS011;61288;53.446;-2.266;2023-04-06T09:28:00;9.45;;;1.98;;
73100;SDS011;61288;53.446;-2.266;2023-04-06T09:30:29;11.18;;;2.30;;
73100;SDS011;61288;53.446;-2.266;2023-04-06T09:32:56;9.93;;;1.98;;
73100;SDS011;61288;53.446;-2.266;2023-04-06T09:35:22;10.98;;;1.77;;
73100;SDS011;61288;53.446;-2.266;2023-04-06T09:37:49;8.88;;;1.73;;
73100;SDS011;61288;53.446;-2.266;2023-04-06T09:40:16;13.68;;;2.53;;
73100;SDS011;61288;53.446;-2.266;2023-04-06T09:42:47;11.60;;;2.22;;
73100;SDS011;61288;53.446;-2.266;2023-04-06T09:45:15;12.35;;;2.00;;
73100;SDS011;61288;53.446;-2.266;2023-04-06T09:47:44;12.68;;;2.13;;
73100;SDS011;61288;53.446;-2.266;2023-04-06T09:50:11;12.95;;;2.00;;
73100;SDS011;61288;53.446;-2.266;2023-04-06T09:52:44;9.63;;;1.90;;
73100;SDS011;61288;53.446;-2.266;2023-04-06T09:55:16;12.82;;;1.88;;
73100;SDS011;61288;53.446;-2.266;2023-04-06T09:57:53;12.15;;;2.20;;
73100;SDS011;61288;53.446;-2.266;2023-04-06T10:00:43;8.48;;;1.45;;
73100;SDS011;61288;53.446;-2.266;2023-04-06T10:06:10;15.95;;;2.38;;
73100;SDS011;61288;53.446;-2.266;2023-04-06T10:08:38;9.57;;;2.10;;
73100;SDS011;61288;53.446;-2.266;2023-04-06T10:11:06;13.32;;;2.00;;
73100;SDS011;61288;53.446;-2.266;2023-04-06T10:13:33;9.98;;;1.85;;
73100;SDS011;61288;53.446;-2.266;2023-04-06T10:15:59;8.23;;;1.77;;
73100;SDS011;61288;53.446;-2.266;2023-04-06T10:18:26;9.40;;;1.48;;
73100;SDS011;61288;53.446;-2.266;2023-04-06T10:21:04;8.75;;;1.65;;
73100;SDS011;61288;53.446;-2.266;2023-04-06T10:23:40;9.02;;;1.63;;
73100;SDS011;61288;53.446;-2.266;2023-04-06T10:26:12;8.95;;;1.30;;
73100;SDS011;61288;53.446;-2.266;2023-04-06T10:28:41;12.43;;;2.03;;
73100;SDS011;61288;53.446;-2.266;2023-04-06T10:31:08;10.68;;;2.20;;
73100;SDS011;61288;53.446;-2.266;2023-04-06T10:33:33;8.43;;;1.73;;
73100;SDS011;61288;53.446;-2.266;2023-04-06T10:38:59;9.18;;;2.05;;
73100;SDS011;61288;53.446;-2.266;2023-04-06T10:44:16;9.52;;;1.50;;
73100;SDS011;61288;53.446;-2.266;2023-04-06T10:46:52;11.95;;;1.90;;
73100;SDS011;61288;53.446;-2.266;2023-04-06T10:49:19;9.00;;;1.80;;
73100;SDS011;61288;53.446;-2.266;2023-04-06T10:51:50;13.73;;;1.75;;
73100;SDS011;61288;53.446;-2.266;2023-04-06T10:54:17;11.40;;;1.75;;
73100;SDS011;61288;53.446;-2.266;2023-04-06T10:56:44;10.50;;;2.08;;
73100;SDS011;61288;53.446;-2.266;2023-04-06T10:59:11;10.10;;;1.83;;
73100;SDS011;61288;53.446;-2.266;2023-04-06T11:01:37;7.18;;;1.60;;
73100;SDS011;61288;53.446;-2.266;2023-04-06T11:04:03;8.05;;;1.60;;
73100;SDS011;61288;53.446;-2.266;2023-04-06T11:06:30;6.38;;;1.67;;
73100;SDS011;61288;53.446;-2.266;2023-04-06T11:08:58;13.55;;;1.90;;
73100;SDS011;61288;53.446;-2.266;2023-04-06T11:11:25;9.75;;;1.80;;
73100;SDS011;61288;53.446;-2.266;2023-04-06T11:16:22;12.15;;;1.80;;
73100;SDS011;61288;53.446;-2.266;2023-04-06T11:18:53;10.60;;;1.75;;
73100;SDS011;61288;53.446;-2.266;2023-04-06T11:21:30;9.30;;;1.88;;
73100;SDS011;61288;53.446;-2.266;2023-04-06T11:24:22;11.90;;;1.85;;
73100;SDS011;61288;53.446;-2.266;2023-04-06T11:29:17;11.45;;;1.58;;
73100;SDS011;61288;53.446;-2.266;2023-04-06T11:31:50;8.00;;;1.58;;
73100;SDS011;61288;53.446;-2.266;2023-04-06T11:34:18;13.68;;;2.22;;
73100;SDS011;61288;53.446;-2.266;2023-04-06T11:36:46;11.38;;;2.42;;
73100;SDS011;61288;53.446;-2.266;2023-04-06T11:39:13;7.13;;;2.03;;
73100;SDS011;61288;53.446;-2.266;2023-04-06T11:41:47;6.65;;;1.30;;
73100;SDS011;61288;53.446;-2.266;2023-04-06T11:44:26;10.77;;;1.48;;
73100;SDS011;61288;53.446;-2.266;2023-04-06T11:46:56;8.50;;;1.88;;
73100;SDS011;61288;53.446;-2.266;2023-04-06T11:49:26;7.28;;;1.75;;
73100;SDS011;61288;53.446;-2.266;2023-04-06T11:51:56;7.18;;;1.80;;
73100;SDS011;61288;53.446;-2.266;2023-04-06T11:54:29;9.02;;;1.80;;
73100;SDS011;61288;53.446;-2.266;2023-04-06T11:56:57;6.78;;;1.55;;
73100;SDS011;61288;53.446;-2.266;2023-04-06T11:59:23;5.63;;;1.45;;
73100;SDS011;61288;53.446;-2.266;2023-04-06T12:01:48;6.40;;;1.20;;
73100;SDS011;61288;53.446;-2.266;2023-04-06T12:04:14;8.27;;;1.50;;
73100;SDS011;61288;53.446;-2.266;2023-04-06T12:06:39;7.70;;;1.38;;
73100;SDS011;61288;53.446;-2.266;2023-04-06T12:09:08;9.90;;;1.70;;
73100;SDS011;61288;53.446;-2.266;2023-04-06T12:11:33;9.52;;;1.50;;
73100;SDS011;61288;53.446;-2.266;2023-04-06T12:13:59;10.15;;;1.75;;
73100;SDS011;61288;53.446;-2.266;2023-04-06T12:16:27;9.55;;;1.58;;
73100;SDS011;61288;53.446;-2.266;2023-04-06T12:18:53;6.20;;;1.33;;
73100;SDS011;61288;53.446;-2.266;2023-04-06T12:21:18;4.72;;;1.50;;
73100;SDS011;61288;53.446;-2.266;2023-04-06T12:23:44;6.53;;;1.45;;
73100;SDS011;61288;53.446;-2.266;2023-04-06T12:26:11;9.00;;;1.52;;
73100;SDS011;61288;53.446;-2.266;2023-04-06T12:28:37;8.82;;;1.90;;
73100;SDS011;61288;53.446;-2.266;2023-04-06T12:31:03;6.78;;;1.30;;
73100;SDS011;61288;53.446;-2.266;2023-04-06T12:33:29;7.75;;;1.60;;
73100;SDS011;61288;53.446;-2.266;2023-04-06T12:35:54;7.40;;;1.50;;
73100;SDS011;61288;53.446;-2.266;2023-04-06T12:38:20;10.82;;;2.05;;
73100;SDS011;61288;53.446;-2.266;2023-04-06T12:40:46;7.47;;;1.35;;
73100;SDS011;61288;53.446;-2.266;2023-04-06T12:43:13;7.63;;;1.27;;
73100;SDS011;61288;53.446;-2.266;2023-04-06T12:45:41;6.35;;;1.88;;
73100;SDS011;61288;53.446;-2.266;2023-04-06T12:48:07;6.40;;;1.40;;
73100;SDS011;61288;53.446;-2.266;2023-04-06T12:50:32;7.07;;;1.30;;
73100;SDS011;61288;53.446;-2.266;2023-04-06T12:52:58;12.65;;;1.60;;
73100;SDS011;61288;53.446;-2.266;2023-04-06T12:55:23;8.35;;;1.38;;
73100;SDS011;61288;53.446;-2.266;2023-04-06T12:57:50;6.20;;;1.50;;
73100;SDS011;61288;53.446;-2.266;2023-04-06T13:00:15;10.20;;;1.73;;
73100;SDS011;61288;53.446;-2.266;2023-04-06T13:02:43;7.50;;;1.65;;
73100;SDS011;61288;53.446;-2.266;2023-04-06T13:05:12;7.25;;;1.60;;
73100;SDS011;61288;53.446;-2.266;2023-04-06T13:07:43;10.82;;;1.70;;
73100;SDS011;61288;53.446;-2.266;2023-04-06T13:10:09;8.82;;;1.73;;
73100;SDS011;61288;53.446;-2.266;2023-04-06T13:12:34;6.15;;;1.50;;
73100;SDS011;61288;53.446;-2.266;2023-04-06T13:15:00;5.15;;;1.30;;
73100;SDS011;61288;53.446;-2.266;2023-04-06T13:17:27;8.30;;;1.33;;
73100;SDS011;61288;53.446;-2.266;2023-04-06T13:19:54;7.10;;;1.70;;
73100;SDS011;61288;53.446;-2.266;2023-04-06T13:22:19;6.95;;;1.65;;
73100;SDS011;61288;53.446;-2.266;2023-04-06T13:24:45;9.05;;;1.80;;
73100;SDS011;61288;53.446;-2.266;2023-04-06T13:27:10;5.60;;;1.30;;
73100;SDS011;61288;53.446;-2.266;2023-04-06T13:29:36;6.68;;;1.40;;
73100;SDS011;61288;53.446;-2.266;2023-04-06T13:32:02;10.95;;;1.38;;
73100;SDS011;61288;53.446;-2.266;2023-04-06T13:34:28;7.50;;;1.60;;
73100;SDS011;61288;53.446;-2.266;2023-04-06T13:36:53;9.52;;;1.67;;
73100;SDS011;61288;53.446;-2.266;2023-04-06T13:39:19;8.00;;;1.35;;
73100;SDS011;61288;53.446;-2.266;2023-04-06T13:41:44;6.72;;;1.30;;
73100;SDS011;61288;53.446;-2.266;2023-04-06T13:44:10;5.75;;;1.20;;
73100;SDS011;61288;53.446;-2.266;2023-04-06T13:46:35;6.72;;;1.55;;
73100;SDS011;61288;53.446;-2.266;2023-04-06T13:49:02;5.95;;;1.38;;
73100;SDS011;61288;53.446;-2.266;2023-04-06T13:51:27;6.05;;;1.20;;
73100;SDS011;61288;53.446;-2.266;2023-04-06T13:53:53;6.53;;;1.50;;
73100;SDS011;61288;53.446;-2.266;2023-04-06T13:56:18;3.97;;;1.30;;
73100;SDS011;61288;53.446;-2.266;2023-04-06T13:58:44;6.97;;;1.35;;
73100;SDS011;61288;53.446;-2.266;2023-04-06T14:01:10;6.85;;;1.30;;
73100;SDS011;61288;53.446;-2.266;2023-04-06T14:03:35;8.25;;;1.30;;
73100;SDS011;61288;53.446;-2.266;2023-04-06T14:06:09;9.25;;;1.58;;
73100;SDS011;61288;53.446;-2.266;2023-04-06T14:08:35;6.05;;;1.10;;
73100;SDS011;61288;53.446;-2.266;2023-04-06T14:11:00;8.13;;;1.30;;
73100;SDS011;61288;53.446;-2.266;2023-04-06T14:13:26;7.70;;;1.30;;
73100;SDS011;61288;53.446;-2.266;2023-04-06T14:15:52;5.32;;;0.90;;
73100;SDS011;61288;53.446;-2.266;2023-04-06T14:18:19;7.43;;;1.70;;
73100;SDS011;61288;53.446;-2.266;2023-04-06T14:20:45;3.97;;;1.00;;
73100;SDS011;61288;53.446;-2.266;2023-04-06T14:23:10;6.32;;;1.27;;
73100;SDS011;61288;53.446;-2.266;2023-04-06T14:25:36;8.85;;;1.58;;
73100;SDS011;61288;53.446;-2.266;2023-04-06T14:28:02;7.45;;;1.20;;
73100;SDS011;61288;53.446;-2.266;2023-04-06T14:30:29;4.47;;;1.35;;
73100;SDS011;61288;53.446;-2.266;2023-04-06T14:33:01;2.97;;;0.80;;
73100;SDS011;61288;53.446;-2.266;2023-04-06T14:35:26;6.28;;;1.23;;
73100;SDS011;61288;53.446;-2.266;2023-04-06T14:37:53;5.15;;;1.30;;
73100;SDS011;61288;53.446;-2.266;2023-04-06T14:40:18;3.58;;;1.15;;